Time;durP1;ratioP1;P1;durP2;ratioP2;P2;SDS_P1;SDS_P2;PMS_P1;PMS_P2;Temp;Humidity;BMP_temperature;BMP_pressure;BME280_temperature;BME280_humidity;BME280_pressure;Samples;Min_cycle;Max_cycle;Signal;HPM_P1;HPM_P2
2023/01/21 00:01:51;;;;;;;1.00;0.90;;;18.90;62.60;;;;;;4496718;31;20092;-69
2023/01/21 00:04:16;;;;;;;1.48;1.10;;;18.90;62.70;;;;;;4481498;32;20124;-68
2023/01/21 00:06:42;;;;;;;2.15;1.23;;;18.80;62.80;;;;;;4482387;32;20140;-67
2023/01/21 00:09:08;;;;;;;1.42;1.10;;;18.80;62.90;;;;;;4495563;32;20112;-68
2023/01/21 00:11:34;;;;;;;1.10;0.70;;;18.70;62.90;;;;;;4482822;32;20139;-68
2023/01/21 00:14:00;;;;;;;1.60;1.08;;;18.70;62.90;;;;;;4495488;32;20150;-67
2023/01/21 00:16:26;;;;;;;2.33;1.10;;;18.70;63.00;;;;;;4496743;31;20133;-68
2023/01/21 00:18:52;;;;;;;1.13;1.02;;;18.60;63.00;;;;;;4499636;31;20268;-69
2023/01/21 00:21:18;;;;;;;1.45;1.13;;;18.60;63.10;;;;;;4498876;31;20132;-67
2023/01/21 00:23:44;;;;;;;1.88;1.30;;;18.60;63.20;;;;;;4499841;31;20604;-68
2023/01/21 00:26:11;;;;;;;1.10;0.90;;;18.50;63.20;;;;;;4498562;31;20133;-68
2023/01/21 00:28:37;;;;;;;2.50;1.30;;;18.50;63.30;;;;;;4499797;31;20612;-67
2023/01/21 00:31:05;;;;;;;1.27;0.98;;;18.50;63.30;;;;;;4498668;31;20147;-67
2023/01/21 00:33:32;;;;;;;1.63;1.20;;;18.40;63.30;;;;;;4485663;31;20136;-67
2023/01/21 00:36:08;;;;;;;2.15;1.00;;;18.40;63.40;;;;;;4485196;31;20451;-67
2023/01/21 00:38:34;;;;;;;1.52;1.17;;;18.40;63.40;;;;;;4498825;31;20128;-68
2023/01/21 00:41:04;;;;;;;1.20;1.10;;;18.40;63.50;;;;;;4499995;31;20673;-68
2023/01/21 00:43:31;;;;;;;1.20;0.90;;;18.30;63.50;;;;;;4498084;31;20133;-68
2023/01/21 00:45:57;;;;;;;1.63;1.33;;;18.30;64.40;;;;;;4472494;31;20589;-68
2023/01/21 00:48:23;;;;;;;1.80;1.23;;;18.30;63.60;;;;;;4482875;31;20125;-68
2023/01/21 00:50:50;;;;;;;1.25;1.02;;;18.20;64.50;;;;;;4485884;31;20605;-69
2023/01/21 00:53:18;;;;;;;2.10;1.35;;;18.20;63.60;;;;;;4485930;31;20093;-68
2023/01/21 00:55:44;;;;;;;1.08;0.98;;;18.20;63.70;;;;;;4498575;31;20156;-69
2023/01/21 00:58:10;;;;;;;1.75;1.38;;;18.20;63.80;;;;;;4499961;31;20140;-68
2023/01/21 01:00:37;;;;;;;1.38;1.20;;;18.10;63.80;;;;;;4484445;31;20128;-68
2023/01/21 01:03:03;;;;;;;1.83;1.17;;;18.10;63.80;;;;;;4500096;31;20280;-68
2023/01/21 01:05:29;;;;;;;1.88;1.17;;;18.10;63.90;;;;;;4498178;31;20249;-68
2023/01/21 01:07:55;;;;;;;2.25;1.25;;;18.10;63.90;;;;;;4499105;31;20132;-67
2023/01/21 01:10:22;;;;;;;1.60;1.20;;;18.10;64.00;;;;;;4484960;31;20116;-68
2023/01/21 01:12:48;;;;;;;2.13;1.40;;;18.00;63.90;;;;;;4497996;31;20117;-68
2023/01/21 01:15:15;;;;;;;1.35;1.23;;;18.00;63.90;;;;;;4485197;31;20481;-67
2023/01/21 01:17:41;;;;;;;1.30;1.20;;;18.00;63.90;;;;;;4497698;31;20290;-68
2023/01/21 01:20:09;;;;;;;1.85;1.10;;;18.00;64.00;;;;;;4484790;31;20136;-68
2023/01/21 01:22:35;;;;;;;1.55;1.10;;;18.00;64.00;;;;;;4494895;31;20231;-68
2023/01/21 01:25:01;;;;;;;1.70;1.00;;;18.00;64.10;;;;;;4485443;31;20117;-67
2023/01/21 01:27:29;;;;;;;2.88;1.55;;;17.90;64.80;;;;;;4485090;31;20199;-68
2023/01/21 01:29:55;;;;;;;1.10;1.00;;;17.90;64.10;;;;;;4496894;31;20197;-68
2023/01/21 01:32:21;;;;;;;1.20;1.10;;;17.90;64.00;;;;;;4472805;31;20121;-68
2023/01/21 01:34:47;;;;;;;1.98;1.23;;;17.90;64.10;;;;;;4495504;31;20233;-67
2023/01/21 01:37:13;;;;;;;1.30;1.20;;;17.90;64.10;;;;;;4483227;32;20192;-68
2023/01/21 01:39:39;;;;;;;1.45;1.20;;;17.90;64.10;;;;;;4493750;31;20266;-67
2023/01/21 01:42:12;;;;;;;1.35;1.23;;;17.80;64.10;;;;;;4497961;31;20637;-68
2023/01/21 01:44:57;;;;;;;2.10;1.40;;;17.80;64.10;;;;;;4498786;31;20093;-67
2023/01/21 01:47:49;;;;;;;1.85;1.50;;;17.80;64.10;;;;;;4483812;31;20278;-68
2023/01/21 01:50:18;;;;;;;1.30;1.20;;;17.80;64.10;;;;;;4489977;31;20132;-67
2023/01/21 01:52:46;;;;;;;1.50;1.17;;;17.80;64.10;;;;;;4496976;31;20274;-67
2023/01/21 01:55:14;;;;;;;1.65;1.40;;;17.80;64.20;;;;;;4496985;31;20157;-67
2023/01/21 01:57:45;;;;;;;1.38;1.27;;;17.70;64.20;;;;;;4471443;31;20081;-67
2023/01/21 02:00:12;;;;;;;1.30;1.20;;;17.70;64.20;;;;;;4483183;31;20133;-67
2023/01/21 02:02:41;;;;;;;1.45;1.20;;;17.70;64.20;;;;;;4471650;31;20144;-67
2023/01/21 02:05:09;;;;;;;1.23;1.10;;;17.70;64.20;;;;;;4497490;31;20140;-67
2023/01/21 02:07:40;;;;;;;1.48;1.30;;;17.70;64.20;;;;;;4498939;31;20282;-67
2023/01/21 02:10:08;;;;;;;1.40;1.13;;;17.60;64.20;;;;;;4498395;31;20166;-67
2023/01/21 02:12:37;;;;;;;1.45;1.20;;;17.60;64.20;;;;;;4497762;31;20132;-67
2023/01/21 02:15:04;;;;;;;1.23;1.10;;;17.60;64.30;;;;;;4498963;31;20186;-67
2023/01/21 02:18:05;;;;;;;1.20;1.10;;;17.60;64.30;;;;;;4497143;31;20141;-68
2023/01/21 02:21:03;;;;;;;1.42;1.20;;;17.60;64.30;;;;;;4497574;31;20136;-68
2023/01/21 02:23:41;;;;;;;1.20;1.10;;;17.60;64.30;;;;;;4476080;32;20074;-67
2023/01/21 02:26:58;;;;;;;1.58;1.10;;;17.60;64.30;;;;;;4495692;31;20136;-67
2023/01/21 02:29:27;;;;;;;1.65;1.20;;;17.50;64.20;;;;;;4466482;31;20292;-67
2023/01/21 02:32:17;;;;;;;1.02;0.98;;;17.50;64.40;;;;;;4498371;31;20116;-67
2023/01/21 02:35:05;;;;;;;1.42;1.20;;;17.50;65.20;;;;;;4468166;32;20125;-67
2023/01/21 02:37:37;;;;;;;2.67;1.40;;;17.50;64.50;;;;;;4493701;31;20712;-68
2023/01/21 02:40:09;;;;;;;1.40;1.30;;;17.50;64.40;;;;;;4497399;31;20684;-67
2023/01/21 02:42:45;;;;;;;1.40;1.20;;;17.50;64.40;;;;;;4498175;31;20136;-67
2023/01/21 02:45:46;;;;;;;1.33;1.23;;;17.50;64.50;;;;;;4499230;31;20120;-67
2023/01/21 02:48:40;;;;;;;1.40;1.25;;;17.50;64.40;;;;;;4497831;31;20593;-67
2023/01/21 02:51:06;;;;;;;1.13;1.00;;;17.40;64.30;;;;;;4481405;32;20144;-68
2023/01/21 02:53:34;;;;;;;1.80;1.50;;;17.40;64.40;;;;;;4498489;31;20257;-67
2023/01/21 02:56:14;;;;;;;1.10;1.00;;;17.40;64.40;;;;;;4470277;31;20133;-67
2023/01/21 02:58:48;;;;;;;2.10;1.55;;;17.40;64.40;;;;;;4498578;31;20667;-67
2023/01/21 03:01:39;;;;;;;1.35;1.20;;;17.40;64.40;;;;;;4497606;31;20286;-67
2023/01/21 03:04:18;;;;;;;1.25;1.10;;;17.40;64.50;;;;;;4497263;31;20120;-67
2023/01/21 03:07:08;;;;;;;1.50;1.30;;;17.40;64.40;;;;;;4498403;31;20151;-67
2023/01/21 03:09:34;;;;;;;1.30;1.20;;;17.30;64.50;;;;;;4497594;31;20178;-67
2023/01/21 03:12:25;;;;;;;1.70;1.45;;;17.30;64.50;;;;;;4483600;31;20133;-68
2023/01/21 03:18:01;;;;;;;1.50;1.33;;;17.30;64.50;;;;;;4497160;31;20126;-67
2023/01/21 03:20:38;;;;;;;1.13;0.98;;;17.30;64.50;;;;;;4498388;31;20166;-68
2023/01/21 03:23:15;;;;;;;1.63;1.30;;;17.30;65.40;;;;;;4481401;32;20532;-67
2023/01/21 03:25:41;;;;;;;1.33;1.23;;;17.30;64.50;;;;;;4495002;31;20195;-67
2023/01/21 03:28:12;;;;;;;1.33;1.23;;;17.30;64.40;;;;;;4498433;31;20120;-67
2023/01/21 03:30:44;;;;;;;1.40;1.30;;;17.20;64.40;;;;;;4496780;31;20140;-67
2023/01/21 03:33:12;;;;;;;1.27;1.10;;;17.30;64.40;;;;;;4481731;32;20203;-67
2023/01/21 03:35:42;;;;;;;1.30;1.20;;;17.20;64.40;;;;;;4493698;31;20593;-67
2023/01/21 03:38:23;;;;;;;1.83;1.63;;;17.20;64.30;;;;;;4497776;31;20121;-68
2023/01/21 03:41:04;;;;;;;1.48;1.30;;;17.20;65.10;;;;;;4498351;31;20121;-67
2023/01/21 03:43:31;;;;;;;1.30;1.20;;;17.20;64.30;;;;;;4496878;31;20142;-67
2023/01/21 03:46:27;;;;;;;1.27;1.17;;;17.20;64.30;;;;;;4498163;31;20157;-67
2023/01/21 03:49:00;;;;;;;1.30;1.20;;;17.30;64.30;;;;;;4498133;31;20135;-67
2023/01/21 03:51:37;;;;;;;;;;;17.20;64.30;;;;;;4497385;31;20140;-68
2023/01/21 03:54:03;;;;;;;1.30;1.17;;;17.30;64.20;;;;;;4498345;31;20033;-67
2023/01/21 03:56:29;;;;;;;1.13;1.00;;;17.20;64.30;;;;;;4467655;32;20109;-68
2023/01/21 03:58:55;;;;;;;1.58;1.48;;;17.30;64.30;;;;;;4473932;32;20156;-68
2023/01/21 04:01:21;;;;;;;1.20;1.10;;;17.20;64.20;;;;;;4469462;31;20160;-67
2023/01/21 04:03:47;;;;;;;1.38;1.27;;;17.20;64.20;;;;;;4497558;31;20185;-67
2023/01/21 04:06:15;;;;;;;1.20;1.10;;;17.20;64.20;;;;;;4498200;32;20592;-67
2023/01/21 04:08:41;;;;;;;1.20;1.10;;;17.20;64.20;;;;;;4496329;32;20152;-67
2023/01/21 04:11:07;;;;;;;1.52;1.10;;;17.20;64.20;;;;;;4476640;32;20136;-67
2023/01/21 04:13:33;;;;;;;0.90;0.90;;;17.30;64.20;;;;;;4465708;32;20117;-67
2023/01/21 04:15:59;;;;;;;1.20;1.10;;;17.30;64.20;;;;;;4498107;32;20148;-67
2023/01/21 04:18:25;;;;;;;1.55;1.10;;;17.20;64.20;;;;;;4497079;32;20113;-67
2023/01/21 04:20:51;;;;;;;1.30;1.20;;;17.30;64.20;;;;;;4497538;32;20135;-67
2023/01/21 04:23:17;;;;;;;1.08;0.98;;;17.20;64.10;;;;;;4481039;32;20057;-67
2023/01/21 04:25:46;;;;;;;0.93;0.90;;;17.20;64.10;;;;;;4494737;32;20147;-68
2023/01/21 04:28:11;;;;;;;1.20;1.10;;;17.20;64.10;;;;;;4497729;32;20128;-67
2023/01/21 04:30:37;;;;;;;1.10;1.00;;;17.20;64.10;;;;;;4496272;32;20123;-67
2023/01/21 04:33:03;;;;;;;2.15;1.20;;;17.20;64.10;;;;;;4497946;32;20237;-67
2023/01/21 04:35:29;;;;;;;1.20;0.98;;;17.20;64.20;;;;;;4471914;32;20120;-67
2023/01/21 04:37:55;;;;;;;1.13;1.02;;;17.20;64.10;;;;;;4467678;32;20121;-67
2023/01/21 04:40:21;;;;;;;1.08;0.90;;;17.20;64.10;;;;;;4491266;32;20088;-67
2023/01/21 04:42:47;;;;;;;1.10;1.00;;;17.20;64.20;;;;;;4496303;32;20186;-67
2023/01/21 04:45:14;;;;;;;1.10;1.00;;;17.20;64.10;;;;;;4497955;32;20257;-67
2023/01/21 04:47:41;;;;;;;1.10;1.00;;;17.20;64.10;;;;;;4470993;32;20267;-67
2023/01/21 04:50:09;;;;;;;1.33;1.05;;;17.20;64.10;;;;;;4497958;32;20151;-67
2023/01/21 04:52:43;;;;;;;0.88;0.88;;;17.20;64.10;;;;;;4472400;32;20140;-67
2023/01/21 04:55:12;;;;;;;0.95;0.80;;;17.20;64.10;;;;;;4467825;32;20266;-68
2023/01/21 04:57:38;;;;;;;1.42;1.13;;;17.20;64.10;;;;;;4491727;32;20096;-68
2023/01/21 05:00:06;;;;;;;1.10;1.00;;;17.20;64.10;;;;;;4479367;32;20598;-67
2023/01/21 05:02:32;;;;;;;1.38;1.20;;;17.20;64.00;;;;;;4492186;31;20133;-68
2023/01/21 05:04:58;;;;;;;1.33;1.00;;;17.20;64.10;;;;;;4481630;31;20140;-69
2023/01/21 05:07:25;;;;;;;0.88;0.88;;;17.20;64.10;;;;;;4500586;31;20140;-68
2023/01/21 05:09:51;;;;;;;1.23;1.13;;;17.20;64.00;;;;;;4499560;31;20101;-69
2023/01/21 05:12:17;;;;;;;1.20;1.10;;;17.20;64.10;;;;;;4470829;32;20136;-68
2023/01/21 05:14:43;;;;;;;1.15;1.00;;;17.20;64.00;;;;;;4470581;32;20136;-68
2023/01/21 05:17:09;;;;;;;1.10;1.00;;;17.20;64.00;;;;;;4482500;31;20207;-68
2023/01/21 05:19:35;;;;;;;1.00;0.90;;;17.20;64.00;;;;;;4483660;32;20180;-67
2023/01/21 05:22:01;;;;;;;0.80;0.80;;;17.20;64.10;;;;;;4493772;31;20151;-67
2023/01/21 05:24:27;;;;;;;1.00;0.90;;;17.20;64.10;;;;;;4500323;31;20137;-67
2023/01/21 05:26:53;;;;;;;1.50;1.20;;;17.20;64.10;;;;;;4499309;31;20194;-67
2023/01/21 05:29:19;;;;;;;1.23;0.90;;;17.20;64.00;;;;;;4499671;31;20128;-67
2023/01/21 05:31:45;;;;;;;1.10;1.00;;;17.20;64.00;;;;;;4476948;32;20069;-67
2023/01/21 05:34:11;;;;;;;0.80;0.80;;;17.20;64.10;;;;;;4496705;31;20180;-67
2023/01/21 05:36:38;;;;;;;1.10;0.90;;;17.10;64.00;;;;;;4483446;32;20262;-67
2023/01/21 05:39:04;;;;;;;0.98;0.90;;;17.10;64.00;;;;;;4494740;31;20149;-67
2023/01/21 05:41:30;;;;;;;1.23;0.90;;;17.10;64.00;;;;;;4500279;31;20271;-67
2023/01/21 05:43:57;;;;;;;1.23;1.13;;;17.10;64.10;;;;;;4498822;31;20147;-67
2023/01/21 05:46:24;;;;;;;1.30;1.20;;;17.10;64.10;;;;;;4482839;32;20194;-67
2023/01/21 05:48:50;;;;;;;1.15;1.00;;;17.10;64.00;;;;;;4493363;31;20100;-67
2023/01/21 05:51:16;;;;;;;1.02;0.90;;;17.10;64.00;;;;;;4470484;32;20183;-67
2023/01/21 05:53:42;;;;;;;1.23;1.10;;;17.10;64.10;;;;;;4470282;32;20476;-67
2023/01/21 05:56:08;;;;;;;1.10;0.90;;;17.10;64.10;;;;;;4469811;31;20109;-65
2023/01/21 05:58:35;;;;;;;1.00;0.80;;;17.10;64.10;;;;;;4498728;31;20213;-67
2023/01/21 06:01:01;;;;;;;1.00;0.90;;;17.10;64.10;;;;;;4473517;31;20217;-67
2023/01/21 06:03:27;;;;;;;1.23;0.93;;;17.10;64.10;;;;;;4484268;31;20121;-67
2023/01/21 06:05:53;;;;;;;1.27;1.10;;;17.10;64.10;;;;;;4499371;31;20182;-67
2023/01/21 06:08:19;;;;;;;0.90;0.90;;;17.10;64.10;;;;;;4468856;31;20128;-67
2023/01/21 06:10:45;;;;;;;1.20;1.10;;;17.10;64.10;;;;;;4482881;31;20175;-67
2023/01/21 06:13:31;;;;;;;1.00;0.90;;;17.00;64.00;;;;;;4493076;31;20142;-67
2023/01/21 06:15:57;;;;;;;1.48;1.00;;;17.00;64.00;;;;;;4478931;32;20125;-68
2023/01/21 06:18:23;;;;;;;1.25;1.15;;;17.10;64.10;;;;;;4466087;31;20124;-67
2023/01/21 06:20:50;;;;;;;1.00;0.90;;;17.00;64.00;;;;;;4499033;31;20121;-67
2023/01/21 06:23:16;;;;;;;1.20;0.90;;;17.10;64.10;;;;;;4499319;31;20105;-68
2023/01/21 06:25:42;;;;;;;1.20;1.10;;;17.10;64.10;;;;;;4483783;31;20132;-67
2023/01/21 06:28:10;;;;;;;1.13;1.02;;;17.00;64.10;;;;;;4482547;32;20129;-67
2023/01/21 06:30:36;;;;;;;1.10;0.90;;;17.00;64.10;;;;;;4494420;31;20125;-68
2023/01/21 06:33:04;;;;;;;1.10;0.90;;;17.00;64.10;;;;;;4479148;32;20204;-68
2023/01/21 06:35:30;;;;;;;1.05;0.95;;;17.00;64.10;;;;;;4476730;32;20275;-68
2023/01/21 06:37:56;;;;;;;1.30;0.90;;;17.00;64.20;;;;;;4498720;31;20137;-67
2023/01/21 06:40:22;;;;;;;1.35;1.10;;;17.00;64.10;;;;;;4475459;32;20058;-67
2023/01/21 06:42:48;;;;;;;1.10;0.93;;;17.00;64.10;;;;;;4496186;31;20117;-68
2023/01/21 06:45:15;;;;;;;1.08;0.90;;;17.00;64.90;;;;;;4482341;32;20129;-68
2023/01/21 06:47:43;;;;;;;1.20;1.02;;;17.00;64.10;;;;;;4494669;31;20105;-67
2023/01/21 06:50:11;;;;;;;1.10;1.00;;;17.00;64.10;;;;;;4499165;31;20128;-67
2023/01/21 06:52:42;;;;;;;1.48;1.25;;;17.00;64.10;;;;;;4497871;31;20345;-67
2023/01/21 06:55:09;;;;;;;1.10;1.00;;;16.90;64.00;;;;;;4498460;31;20501;-67
2023/01/21 06:57:36;;;;;;;0.93;0.90;;;17.00;64.10;;;;;;4498557;31;20149;-67
2023/01/21 07:00:03;;;;;;;1.42;1.02;;;17.00;64.10;;;;;;4497623;31;20136;-67
2023/01/21 07:02:31;;;;;;;1.10;0.93;;;16.90;64.00;;;;;;4498915;31;20132;-67
2023/01/21 07:04:57;;;;;;;0.80;0.80;;;17.00;64.00;;;;;;4497056;31;20170;-67
2023/01/21 07:07:23;;;;;;;1.33;1.23;;;17.00;64.00;;;;;;4482039;32;20211;-67
2023/01/21 07:09:49;;;;;;;1.10;1.00;;;16.90;64.00;;;;;;4491780;31;20193;-67
2023/01/21 07:12:15;;;;;;;1.33;0.90;;;17.00;64.10;;;;;;4469509;32;20140;-67
2023/01/21 07:14:41;;;;;;;1.15;1.05;;;16.90;64.90;;;;;;4491359;31;20146;-67
2023/01/21 07:17:07;;;;;;;1.10;1.00;;;16.90;64.00;;;;;;4482506;31;20133;-68
2023/01/21 07:19:33;;;;;;;0.93;0.80;;;17.00;64.10;;;;;;4498653;31;20732;-67
2023/01/21 07:21:58;;;;;;;1.05;0.95;;;16.90;64.00;;;;;;4471796;31;20121;-68
2023/01/21 07:24:24;;;;;;;1.25;1.00;;;16.90;64.00;;;;;;4498608;31;20105;-68
2023/01/21 07:26:50;;;;;;;1.42;1.00;;;17.00;64.00;;;;;;4473110;32;20473;-67
2023/01/21 07:29:36;;;;;;;1.23;0.80;;;16.90;64.00;;;;;;4458895;32;20128;-67
2023/01/21 07:32:22;;;;;;;0.80;0.80;;;16.90;64.00;;;;;;4483598;31;20133;-67
2023/01/21 07:35:08;;;;;;;1.10;1.00;;;16.90;64.00;;;;;;4485282;31;20147;-67
2023/01/21 07:37:54;;;;;;;1.27;1.00;;;16.90;64.00;;;;;;4464188;31;20128;-67
2023/01/21 07:40:39;;;;;;;1.10;1.00;;;16.90;64.00;;;;;;4486252;31;20640;-67
2023/01/21 07:43:05;;;;;;;1.08;0.98;;;16.90;64.00;;;;;;4496976;31;20125;-67
2023/01/21 07:45:31;;;;;;;1.35;1.10;;;16.90;64.00;;;;;;4498485;31;20128;-67
2023/01/21 07:47:58;;;;;;;1.33;1.00;;;16.90;64.00;;;;;;4496799;31;20214;-67
2023/01/21 07:50:24;;;;;;;1.27;0.90;;;16.90;64.00;;;;;;4498242;31;20124;-67
2023/01/21 07:52:53;;;;;;;1.10;0.88;;;16.90;64.00;;;;;;4469702;31;20130;-67
2023/01/21 07:55:19;;;;;;;0.98;0.90;;;16.80;64.00;;;;;;4497341;31;20128;-67
2023/01/21 07:57:45;;;;;;;1.48;1.02;;;16.80;63.90;;;;;;4482072;31;20144;-67
2023/01/21 08:00:12;;;;;;;0.98;0.85;;;16.80;64.10;;;;;;4469594;31;20273;-67
2023/01/21 08:02:39;;;;;;;1.48;1.38;;;16.90;64.20;;;;;;4498344;31;20198;-67
2023/01/21 08:05:06;;;;;;;1.35;0.98;;;16.90;64.60;;;;;;4482360;31;20148;-67
2023/01/21 08:07:32;;;;;;;1.05;0.90;;;17.00;64.70;;;;;;4481310;32;20491;-67
2023/01/21 08:09:58;;;;;;;4.43;1.13;;;17.00;64.50;;;;;;4491531;32;20144;-67
2023/01/21 08:12:24;;;;;;;2.08;0.80;;;17.10;64.10;;;;;;4467394;32;20151;-67
2023/01/21 08:14:50;;;;;;;1.88;0.70;;;17.30;63.70;;;;;;4468219;32;20194;-67
2023/01/21 08:17:16;;;;;;;1.75;0.90;;;17.40;63.30;;;;;;4494949;32;20244;-67
2023/01/21 08:19:42;;;;;;;1.73;0.90;;;17.60;63.00;;;;;;4483216;32;20141;-67
2023/01/21 08:22:08;;;;;;;3.70;0.73;;;17.80;62.50;;;;;;4495996;32;20585;-67
2023/01/21 08:24:34;;;;;;;1.02;0.80;;;17.90;62.10;;;;;;4482961;32;20128;-67
2023/01/21 08:27:04;;;;;;;0.70;0.70;;;18.10;61.70;;;;;;4482986;32;20202;-68
2023/01/21 08:29:30;;;;;;;1.10;0.80;;;18.20;61.30;;;;;;4469430;32;20169;-69
2023/01/21 08:31:57;;;;;;;1.35;0.70;;;18.40;60.90;;;;;;4483137;32;20077;-68
2023/01/21 08:34:24;;;;;;;1.35;0.80;;;18.50;60.50;;;;;;4495835;32;20167;-69
2023/01/21 08:36:50;;;;;;;3.58;0.68;;;18.70;60.20;;;;;;4480715;31;20601;-68
2023/01/21 08:39:16;;;;;;;0.60;0.60;;;18.80;59.90;;;;;;4497921;31;20142;-69
2023/01/21 08:41:43;;;;;;;1.02;0.60;;;19.00;59.50;;;;;;4486136;31;20148;-68
2023/01/21 08:44:09;;;;;;;1.55;0.60;;;19.10;59.20;;;;;;4499545;31;20306;-67
2023/01/21 08:46:35;;;;;;;0.60;0.60;;;19.20;58.80;;;;;;4491894;31;20128;-68
2023/01/21 08:49:02;;;;;;;0.85;0.70;;;19.40;58.60;;;;;;4481460;31;20081;-67
2023/01/21 08:51:28;;;;;;;0.82;0.50;;;19.40;58.40;;;;;;4497675;31;20144;-68
2023/01/21 08:53:54;;;;;;;0.43;0.43;;;19.40;58.10;;;;;;4486281;31;20135;-68
2023/01/21 08:56:20;;;;;;;1.55;0.85;;;19.50;58.10;;;;;;4484107;31;20132;-68
2023/01/21 08:58:46;;;;;;;0.60;0.60;;;19.60;58.00;;;;;;4486005;31;20378;-69
2023/01/21 09:01:16;;;;;;;1.60;0.68;;;19.60;58.00;;;;;;4499112;31;20139;-69
2023/01/21 09:03:42;;;;;;;0.55;0.50;;;19.60;57.90;;;;;;4499698;31;20128;-68
2023/01/21 09:06:10;;;;;;;3.65;0.80;;;19.70;57.90;;;;;;4485866;31;20147;-68
2023/01/21 09:08:36;;;;;;;0.93;0.60;;;19.70;57.80;;;;;;4484079;31;20136;-68
2023/01/21 09:11:03;;;;;;;0.60;0.60;;;19.80;57.70;;;;;;4500161;31;20194;-69
2023/01/21 09:13:37;;;;;;;2.50;0.73;;;19.80;57.70;;;;;;4498383;31;20163;-67
2023/01/21 09:16:09;;;;;;;1.00;0.60;;;19.80;57.70;;;;;;4485062;31;20274;-68
2023/01/21 09:18:36;;;;;;;1.45;0.68;;;19.90;57.80;;;;;;4499383;31;20135;-68
2023/01/21 09:21:04;;;;;;;1.08;0.57;;;19.90;57.70;;;;;;4498886;31;20236;-68
2023/01/21 09:23:33;;;;;;;2.35;0.70;;;19.80;57.60;;;;;;4485707;31;20143;-67
2023/01/21 09:26:17;;;;;;;1.05;0.65;;;19.90;57.60;;;;;;4493138;31;20152;-67
2023/01/21 09:28:45;;;;;;;1.00;0.47;;;19.90;57.60;;;;;;4489946;31;20518;-68
2023/01/21 09:31:14;;;;;;;1.98;0.70;;;19.90;57.50;;;;;;4493618;31;20147;-68
2023/01/21 09:34:02;;;;;;;0.90;0.60;;;20.00;57.60;;;;;;4478005;31;20133;-68
2023/01/21 09:36:48;;;;;;;0.80;0.80;;;19.90;57.60;;;;;;4479390;31;20250;-68
2023/01/21 09:39:25;;;;;;;6.82;0.98;;;20.00;57.70;;;;;;4484476;31;20128;-68
2023/01/21 09:41:53;;;;;;;2.10;0.80;;;20.00;57.70;;;;;;4477271;32;20125;-68
2023/01/21 09:44:36;;;;;;;1.45;0.80;;;20.00;57.90;;;;;;4491777;31;20214;-68
2023/01/21 09:47:05;;;;;;;1.23;0.85;;;20.00;57.90;;;;;;4489526;31;20140;-67
2023/01/21 09:49:43;;;;;;;3.90;0.70;;;20.00;57.90;;;;;;4492038;31;20140;-69
2023/01/21 09:52:22;;;;;;;3.88;0.70;;;20.00;58.10;;;;;;4485296;31;20470;-69
2023/01/21 09:54:48;;;;;;;5.13;0.80;;;20.10;59.00;;;;;;4479827;31;20137;-69
2023/01/21 09:57:14;;;;;;;1.55;0.73;;;20.00;58.30;;;;;;4498300;31;20241;-68
2023/01/21 10:00:04;;;;;;;3.15;0.90;;;20.10;58.30;;;;;;4483565;31;20124;-69
2023/01/21 10:02:47;;;;;;;1.30;0.80;;;20.10;58.40;;;;;;4499168;31;20278;-68
2023/01/21 10:05:41;;;;;;;2.30;0.75;;;20.10;58.50;;;;;;4496798;31;20121;-68
2023/01/21 10:08:48;;;;;;;1.45;0.70;;;20.10;58.50;;;;;;4497032;31;20682;-68
2023/01/21 10:11:33;;;;;;;2.33;0.80;;;20.10;58.60;;;;;;4498084;31;20129;-68
2023/01/21 10:14:03;;;;;;;0.70;0.68;;;20.10;58.60;;;;;;4482596;31;20140;-68
2023/01/21 10:16:50;;;;;;;1.70;0.70;;;20.10;58.70;;;;;;4497426;31;20164;-68
2023/01/21 10:19:23;;;;;;;1.33;0.75;;;20.10;58.80;;;;;;4497903;31;20186;-68
2023/01/21 10:22:00;;;;;;;3.50;0.70;;;20.10;58.80;;;;;;4496046;31;20207;-67
2023/01/21 10:24:37;;;;;;;3.05;0.80;;;20.10;58.90;;;;;;4497157;31;20318;-67
2023/01/21 10:27:04;;;;;;;2.13;0.80;;;20.10;58.90;;;;;;4497095;31;20573;-67
2023/01/21 10:29:32;;;;;;;0.68;0.68;;;20.10;58.90;;;;;;4456325;31;20302;-67
2023/01/21 10:32:07;;;;;;;0.98;0.55;;;20.10;58.90;;;;;;4497569;31;20140;-68
2023/01/21 10:34:39;;;;;;;1.33;0.90;;;20.10;59.00;;;;;;4495037;31;20143;-69
2023/01/21 10:37:33;;;;;;;0.70;0.63;;;20.10;59.00;;;;;;4497800;31;20274;-69
2023/01/21 10:40:12;;;;;;;1.08;0.85;;;20.20;59.10;;;;;;4482479;31;20242;-68
2023/01/21 10:43:06;;;;;;;0.90;0.60;;;20.20;59.10;;;;;;4481046;31;20175;-68
2023/01/21 10:46:02;;;;;;;1.00;0.80;;;20.20;59.10;;;;;;4494063;31;20168;-69
2023/01/21 10:49:07;;;;;;;0.63;0.50;;;20.20;59.10;;;;;;4498163;31;20128;-66
2023/01/21 10:51:43;;;;;;;1.10;0.68;;;20.20;59.10;;;;;;4482328;31;20136;-67
2023/01/21 10:54:41;;;;;;;2.35;0.73;;;20.20;59.10;;;;;;4498547;31;20124;-68
2023/01/21 10:57:33;;;;;;;0.50;0.50;;;20.20;59.30;;;;;;4483795;31;20132;-67
2023/01/21 11:00:01;;;;;;;0.95;0.55;;;20.20;59.20;;;;;;4496508;31;20194;-67
2023/01/21 11:02:32;;;;;;;1.15;0.75;;;20.20;59.20;;;;;;4483711;31;20148;-67
2023/01/21 11:05:03;;;;;;;2.92;0.85;;;20.20;59.20;;;;;;4486593;31;20121;-67
2023/01/21 11:07:35;;;;;;;1.15;0.50;;;20.20;59.20;;;;;;4470040;32;20164;-68
2023/01/21 11:10:03;;;;;;;1.33;0.52;;;20.20;59.20;;;;;;4483356;31;20195;-67
2023/01/21 11:12:31;;;;;;;1.02;0.80;;;20.30;59.30;;;;;;4471815;31;20210;-68
2023/01/21 11:15:06;;;;;;;0.90;0.63;;;20.30;59.30;;;;;;4497689;31;20245;-68
2023/01/21 11:17:39;;;;;;;1.15;0.60;;;20.30;59.40;;;;;;4493661;31;20238;-68
2023/01/21 11:20:34;;;;;;;2.75;0.60;;;20.30;59.40;;;;;;4497845;31;20574;-67
2023/01/21 11:23:04;;;;;;;1.08;0.50;;;20.30;59.40;;;;;;4497683;31;20081;-67
2023/01/21 11:25:40;;;;;;;1.40;0.60;;;20.30;59.40;;;;;;4495262;31;20182;-68
2023/01/21 11:28:28;;;;;;;1.70;0.57;;;20.30;59.40;;;;;;4497193;31;20585;-68
2023/01/21 11:31:13;;;;;;;3.35;0.80;;;20.30;59.30;;;;;;4496267;31;20132;-68
2023/01/21 11:33:41;;;;;;;1.00;0.55;;;20.30;59.30;;;;;;4496637;31;20143;-67
2023/01/21 11:36:16;;;;;;;2.25;0.60;;;20.30;59.30;;;;;;4497508;31;20167;-67
2023/01/21 11:38:44;;;;;;;1.55;0.60;;;20.30;59.30;;;;;;4486095;31;20273;-66
2023/01/21 11:41:21;;;;;;;2.05;0.80;;;20.30;59.30;;;;;;4485540;31;20136;-67
2023/01/21 11:43:49;;;;;;;0.80;0.50;;;20.30;59.20;;;;;;4494630;31;20132;-66
2023/01/21 11:46:37;;;;;;;0.43;0.40;;;20.30;59.20;;;;;;4497347;31;20140;-66
2023/01/21 11:49:06;;;;;;;0.90;0.47;;;20.40;59.30;;;;;;4497641;31;20707;-66
2023/01/21 11:51:34;;;;;;;0.52;0.50;;;20.40;59.20;;;;;;4495986;31;20190;-68
2023/01/21 11:54:36;;;;;;;1.85;0.57;;;20.40;59.20;;;;;;4488580;31;20176;-68
2023/01/21 11:57:02;;;;;;;2.08;0.60;;;20.40;59.20;;;;;;4487652;31;20147;-71
2023/01/21 11:59:48;;;;;;;1.92;0.43;;;20.40;59.10;;;;;;4496624;31;20238;-67
2023/01/21 12:02:20;;;;;;;2.42;0.55;;;20.40;59.20;;;;;;4490976;31;20176;-66
2023/01/21 12:05:02;;;;;;;0.95;0.50;;;20.40;59.10;;;;;;4486461;31;20303;-67
2023/01/21 12:07:32;;;;;;;0.50;0.35;;;20.40;59.20;;;;;;4491416;31;20567;-67
2023/01/21 12:10:21;;;;;;;0.70;0.52;;;20.40;59.10;;;;;;4490100;32;20186;-66
2023/01/21 12:13:13;;;;;;;1.83;0.40;;;20.40;59.10;;;;;;4496149;31;20194;-66
2023/01/21 12:15:48;;;;;;;2.22;0.57;;;20.40;59.10;;;;;;4487968;31;20144;-67
2023/01/21 12:18:23;;;;;;;0.63;0.55;;;20.50;60.00;;;;;;4498643;31;20151;-66
2023/01/21 12:21:12;;;;;;;2.00;0.60;;;20.50;59.00;;;;;;4498008;31;20258;-67
2023/01/21 12:24:15;;;;;;;0.98;0.45;;;20.50;59.00;;;;;;4497300;31;20139;-66
2023/01/21 12:27:06;;;;;;;0.87;0.70;;;20.50;59.00;;;;;;4497209;31;20136;-67
2023/01/21 12:29:47;;;;;;;0.85;0.40;;;20.50;59.00;;;;;;4496063;31;20188;-67
2023/01/21 12:32:20;;;;;;;1.00;0.57;;;20.60;59.00;;;;;;4499625;31;20160;-66
2023/01/21 12:34:47;;;;;;;2.33;0.50;;;20.60;59.10;;;;;;4498761;31;20132;-67
2023/01/21 12:37:37;;;;;;;0.50;0.40;;;20.60;59.00;;;;;;4500015;31;20148;-68
2023/01/21 12:40:18;;;;;;;2.03;0.55;;;20.60;59.10;;;;;;4499095;31;20226;-67
2023/01/21 12:42:50;;;;;;;0.50;0.40;;;20.60;59.10;;;;;;4493923;31;20147;-66
2023/01/21 12:45:32;;;;;;;0.45;0.40;;;20.60;59.10;;;;;;4485294;31;20133;-66
2023/01/21 12:48:14;;;;;;;0.52;0.40;;;20.60;59.20;;;;;;4484136;31;20136;-67
2023/01/21 12:50:47;;;;;;;1.33;0.60;;;20.60;59.30;;;;;;4493223;31;20128;-67
2023/01/21 12:53:16;;;;;;;0.93;0.60;;;20.60;59.30;;;;;;4489551;31;20251;-66
2023/01/21 12:56:00;;;;;;;1.95;0.45;;;20.60;59.30;;;;;;4494689;31;20143;-66
2023/01/21 12:58:41;;;;;;;2.77;0.40;;;20.60;59.30;;;;;;4489735;31;20143;-66
2023/01/21 13:01:14;;;;;;;1.23;0.75;;;20.60;59.30;;;;;;4492359;31;20217;-72
2023/01/21 13:03:49;;;;;;;0.50;0.40;;;20.60;59.40;;;;;;4478062;31;20226;-66
2023/01/21 13:06:24;;;;;;;0.57;0.40;;;20.60;59.60;;;;;;4483571;31;20267;-66
2023/01/21 13:08:55;;;;;;;1.02;0.57;;;20.60;59.60;;;;;;4491934;31;20147;-68
2023/01/21 13:11:47;;;;;;;0.70;0.55;;;20.60;59.60;;;;;;4486832;31;20125;-66
2023/01/21 13:14:25;;;;;;;0.38;0.32;;;20.60;59.60;;;;;;4497932;31;20180;-67
2023/01/21 13:16:57;;;;;;;1.58;0.47;;;20.70;59.70;;;;;;4495522;31;25290;-68